Sadan Bayraktar — TCRB — position and weather

sailwx.info

Track history (hours):
 
Tides and Currents Weather Stations Pressure Air Temp Water Temp Dewpoint Dewpoint Depression Visibility Wind Speed Wind Dir Waves Ship Positions

Sadan Bayraktar

Last reported at 2014-Aug-30 03:33 UTC. Time now 2014-Sep-02 18:57 UTC.
Position N 34°18' E 033°05'.

Length 116 m; draft 7.8 m.

Type: Cargo ship. MMSI: 271000653.

Date/timePositionNaut miles runAvg speedWind from/ knotsBaromVisibWave heightAir tempDewpointWater temp
2014-Aug-30 03:33N 34°18' E 033°05'1111.4
2014-Aug-30 02:33N 34°20' E 032°52'1211.3
2014-Aug-30 01:28N 34°22' E 032°37'1011.5
2014-Aug-30 00:33N 34°24' E 032°25'1311.7
2014-Aug-29 23:26N 34°26' E 032°09'1511.8
2014-Aug-29 22:10N 34°32' E 031°52'16911.4
2014-Aug-29 07:21N 35°32' E 028°39'910.7
2014-Aug-29 06:33N 35°35' E 028°30'1111.0
2014-Aug-29 05:33N 35°39' E 028°17'3911.0
2014-Aug-29 02:03N 35°55' E 027°34'712.0
2014-Aug-29 01:27N 36°00' E 027°28'4511.3
2014-Aug-28 21:30N 36°34' E 026°51'1311.6
2014-Aug-28 20:24N 36°46' E 026°45'1011.8
2014-Aug-28 19:32N 36°55' E 026°39'1111.4
2014-Aug-28 18:34N 37°05' E 026°32'1211.4
2014-Aug-28 17:33N 37°12' E 026°21'1111.3
2014-Aug-28 16:33N 37°19' E 026°10'1211.5
2014-Aug-28 15:33N 37°26' E 025°58'1110.6
2014-Aug-28 14:33N 37°35' E 025°52'1511.4
2014-Aug-28 13:14N 37°50' E 025°49'911.4
2014-Aug-28 12:28N 37°58' E 025°47'1011.4
2014-Aug-28 11:33N 38°09' E 025°46'1211.9
2014-Aug-28 10:33N 38°21' E 025°45'1611.8
2014-Aug-28 09:13N 38°37' E 025°45'811.8
2014-Aug-28 08:33N 38°44' E 025°45'2411.5
2014-Aug-28 06:29N 39°08' E 025°45'3511.6
2014-Aug-28 03:27N 39°43' E 025°49'1011.4
2014-Aug-28 02:32N 39°53' E 025°52'2912.0
2014-Aug-28 00:08N 40°10' E 026°23'12010.8
2014-Aug-27 13:03N 40°55' E 028°49'5 9.7
2014-Aug-27 12:33N 40°57' E 028°55'1 1.1
2014-Aug-27 11:14N 40°58' E 028°55'0 0.0
2014-Aug-27 10:32N 40°58' E 028°55'0 0.0
2014-Aug-27 06:26N 40°58' E 028°55'0 0.0
2014-Aug-27 05:32N 40°58' E 028°55'0 0.0
2014-Aug-27 03:26N 40°58' E 028°56'0 0.0
2014-Aug-26 19:08N 40°58' E 028°56'0 0.0
2014-Aug-26 17:17N 40°58' E 028°56'0 0.0
2014-Aug-26 13:17N 40°58' E 028°56'0 0.0
2014-Aug-26 12:17N 40°58' E 028°56'0 0.0
2014-Aug-26 11:17N 40°58' E 028°56'0 0.0
2014-Aug-26 06:32N 40°58' E 028°56'0 0.0
2014-Aug-26 05:14N 40°58' E 028°56'0 0.0
2014-Aug-26 04:08N 40°58' E 028°56'0 0.0
2014-Aug-26 00:32N 40°58' E 028°56'2 0.2
2014-Aug-25 16:33N 40°59' E 028°58'355 7.9
2014-Aug-23 19:33N 46°35' E 031°35'27 1.7
2014-Aug-23 03:31N 46°57' E 031°60'0 0.0
2014-Aug-23 02:31N 46°57' E 031°60'0 0.0
2014-Aug-23 01:31N 46°57' E 031°60'0 0.0
2014-Aug-23 00:31N 46°57' E 031°60'0 0.0
2014-Aug-22 23:31N 46°57' E 031°60'0 0.0
2014-Aug-22 22:31N 46°57' E 031°60'0 0.0
2014-Aug-22 21:31N 46°57' E 031°60'0 0.0
2014-Aug-22 20:31N 46°57' E 031°60'0 0.0
2014-Aug-22 19:31N 46°57' E 031°60'0 0.0
2014-Aug-22 18:31N 46°57' E 031°60'0 0.0
2014-Aug-22 17:31N 46°57' E 031°60'0 0.0
2014-Aug-22 16:31N 46°57' E 031°60'0 0.0
2014-Aug-22 15:31N 46°57' E 031°60'0 0.0
2014-Aug-22 14:31N 46°57' E 031°60'0 0.0
2014-Aug-22 13:31N 46°57' E 031°60'0 0.0
2014-Aug-22 11:19N 46°57' E 031°60'0 0.0
2014-Aug-22 10:31N 46°57' E 031°60'0 0.0
2014-Aug-22 09:31N 46°57' E 031°60'0 0.0
2014-Aug-22 08:31N 46°57' E 031°60'0 0.0
2014-Aug-22 07:33N 46°57' E 031°60'0 0.0
2014-Aug-22 06:33N 46°57' E 031°60'0 0.0
2014-Aug-22 05:33N 46°57' E 031°60'0 0.0
2014-Aug-22 04:33N 46°57' E 031°60'0 0.0
2014-Aug-22 03:33N 46°57' E 031°60'0 0.0
2014-Aug-22 02:33N 46°57' E 031°60'0 0.0
2014-Aug-22 01:33N 46°57' E 031°60'0 0.0
2014-Aug-22 00:33N 46°57' E 031°60'0 0.0
2014-Aug-21 23:33N 46°57' E 031°60'0 0.0
2014-Aug-21 22:33N 46°57' E 031°60'0 0.0
2014-Aug-21 21:33N 46°57' E 031°60'0 0.0
2014-Aug-21 20:33N 46°57' E 031°60'1 1.0
2014-Aug-21 19:33N 46°56' E 032°01'8 8.1
2014-Aug-21 18:34N 46°49' E 031°55'1110.6
2014-Aug-21 17:34N 46°39' E 031°55'1211.7
2014-Aug-21 16:30N 46°36' E 031°38'  
Track history (hours):
 
Tides and Currents Weather Stations Pressure Air Temp Water Temp Dewpoint Dewpoint Depression Visibility Wind Speed Wind Dir Waves Ship Positions

Sadan Bayraktar

Last reported at 2014-Aug-30 03:33 UTC. Time now 2014-Sep-02 18:57 UTC.
Position N 34°18' E 033°05'.

Length 116 m; draft 7.8 m.

Type: Cargo ship. MMSI: 271000653.

Date/timePositionNaut miles runAvg speedWind from/ knotsBaromVisibWave heightAir tempDewpointWater temp
2014-Aug-30 03:33N 34°18' E 033°05'1111.4
2014-Aug-30 02:33N 34°20' E 032°52'1211.3
2014-Aug-30 01:28N 34°22' E 032°37'1011.5
2014-Aug-30 00:33N 34°24' E 032°25'1311.7
2014-Aug-29 23:26N 34°26' E 032°09'1511.8
2014-Aug-29 22:10N 34°32' E 031°52'16911.4
2014-Aug-29 07:21N 35°32' E 028°39'910.7
2014-Aug-29 06:33N 35°35' E 028°30'1111.0
2014-Aug-29 05:33N 35°39' E 028°17'3911.0
2014-Aug-29 02:03N 35°55' E 027°34'712.0
2014-Aug-29 01:27N 36°00' E 027°28'4511.3
2014-Aug-28 21:30N 36°34' E 026°51'1311.6
2014-Aug-28 20:24N 36°46' E 026°45'1011.8
2014-Aug-28 19:32N 36°55' E 026°39'1111.4
2014-Aug-28 18:34N 37°05' E 026°32'1211.4
2014-Aug-28 17:33N 37°12' E 026°21'1111.3
2014-Aug-28 16:33N 37°19' E 026°10'1211.5
2014-Aug-28 15:33N 37°26' E 025°58'1110.6
2014-Aug-28 14:33N 37°35' E 025°52'1511.4
2014-Aug-28 13:14N 37°50' E 025°49'911.4
2014-Aug-28 12:28N 37°58' E 025°47'1011.4
2014-Aug-28 11:33N 38°09' E 025°46'1211.9
2014-Aug-28 10:33N 38°21' E 025°45'1611.8
2014-Aug-28 09:13N 38°37' E 025°45'811.8
2014-Aug-28 08:33N 38°44' E 025°45'2411.5
2014-Aug-28 06:29N 39°08' E 025°45'3511.6
2014-Aug-28 03:27N 39°43' E 025°49'1011.4
2014-Aug-28 02:32N 39°53' E 025°52'2912.0
2014-Aug-28 00:08N 40°10' E 026°23'12010.8
2014-Aug-27 13:03N 40°55' E 028°49'5 9.7
2014-Aug-27 12:33N 40°57' E 028°55'1 1.1
2014-Aug-27 11:14N 40°58' E 028°55'0 0.0
2014-Aug-27 10:32N 40°58' E 028°55'0 0.0
2014-Aug-27 06:26N 40°58' E 028°55'0 0.0
2014-Aug-27 05:32N 40°58' E 028°55'0 0.0
2014-Aug-27 03:26N 40°58' E 028°56'0 0.0
2014-Aug-26 19:08N 40°58' E 028°56'0 0.0
2014-Aug-26 17:17N 40°58' E 028°56'0 0.0
2014-Aug-26 13:17N 40°58' E 028°56'0 0.0
2014-Aug-26 12:17N 40°58' E 028°56'0 0.0
2014-Aug-26 11:17N 40°58' E 028°56'0 0.0
2014-Aug-26 06:32N 40°58' E 028°56'0 0.0
2014-Aug-26 05:14N 40°58' E 028°56'0 0.0
2014-Aug-26 04:08N 40°58' E 028°56'0 0.0
2014-Aug-26 00:32N 40°58' E 028°56'2 0.2
2014-Aug-25 16:33N 40°59' E 028°58'355 7.9
2014-Aug-23 19:33N 46°35' E 031°35'27 1.7
2014-Aug-23 03:31N 46°57' E 031°60'0 0.0
2014-Aug-23 02:31N 46°57' E 031°60'0 0.0
2014-Aug-23 01:31N 46°57' E 031°60'0 0.0
2014-Aug-23 00:31N 46°57' E 031°60'0 0.0
2014-Aug-22 23:31N 46°57' E 031°60'0 0.0
2014-Aug-22 22:31N 46°57' E 031°60'0 0.0
2014-Aug-22 21:31N 46°57' E 031°60'0 0.0
2014-Aug-22 20:31N 46°57' E 031°60'0 0.0
2014-Aug-22 19:31N 46°57' E 031°60'0 0.0
2014-Aug-22 18:31N 46°57' E 031°60'0 0.0
2014-Aug-22 17:31N 46°57' E 031°60'0 0.0
2014-Aug-22 16:31N 46°57' E 031°60'0 0.0
2014-Aug-22 15:31N 46°57' E 031°60'0 0.0
2014-Aug-22 14:31N 46°57' E 031°60'0 0.0
2014-Aug-22 13:31N 46°57' E 031°60'0 0.0
2014-Aug-22 11:19N 46°57' E 031°60'0 0.0
2014-Aug-22 10:31N 46°57' E 031°60'0 0.0
2014-Aug-22 09:31N 46°57' E 031°60'0 0.0
2014-Aug-22 08:31N 46°57' E 031°60'0 0.0
2014-Aug-22 07:33N 46°57' E 031°60'0 0.0
2014-Aug-22 06:33N 46°57' E 031°60'0 0.0
2014-Aug-22 05:33N 46°57' E 031°60'0 0.0
2014-Aug-22 04:33N 46°57' E 031°60'0 0.0
2014-Aug-22 03:33N 46°57' E 031°60'0 0.0
2014-Aug-22 02:33N 46°57' E 031°60'0 0.0
2014-Aug-22 01:33N 46°57' E 031°60'0 0.0
2014-Aug-22 00:33N 46°57' E 031°60'0 0.0
2014-Aug-21 23:33N 46°57' E 031°60'0 0.0
2014-Aug-21 22:33N 46°57' E 031°60'0 0.0
2014-Aug-21 21:33N 46°57' E 031°60'0 0.0
2014-Aug-21 20:33N 46°57' E 031°60'1 1.0
2014-Aug-21 19:33N 46°56' E 032°01'8 8.1
2014-Aug-21 18:34N 46°49' E 031°55'1110.6
2014-Aug-21 17:34N 46°39' E 031°55'1211.7
2014-Aug-21 16:30N 46°36' E 031°38'  

Dump ship's entire track history